Terminal Aerodrome Forecast
Issued by NWS

Home | Current Version | Previous Version | Text Only | Print | Product List | Glossary Off
Versions: 1 2 3 4 5 6 7 8 9 10 11 12 13 14 15 16 17 18 19 20 21 22 23 24 25 26 27

000
FTUS43 KLOT 232300
TAFMDW
TAF
KMDW 232322Z 2400/2424 21007KT P6SM SCT025 OVC150
     FM240600 34004KT P6SM OVC100
     FM241000 36008KT 6SM BR VCSH OVC050
     FM241300 36013G22KT 4SM RA BR SCT008 OVC015 PROB30 2415/2417
      1/2SM SNRA OVC008
     FM241700 31016G25KT 1SM -SN BR OVC006
      TEMPO 2417/2421 1/2SM SN FG VV003=

USA.gov is the U.S. government's official web portal to all federal, state and local government web resources and services.